Time;durP1;ratioP1;P1;durP2;ratioP2;P2;SDS_P1;SDS_P2;PMS_P1;PMS_P2;Temp;Humidity;BMP_temperature;BMP_pressure;BME280_temperature;BME280_humidity;BME280_pressure;Samples;Min_cycle;Max_cycle;Signal;HPM_P1;HPM_P2
2022/03/06 00:00:47;;;;;;;16.90;8.90;;;-3.60;99.90;;;;;;4984101;28;20564;-82
2022/03/06 00:03:13;;;;;;;14.53;8.43;;;-3.60;99.90;;;;;;4983953;28;20230;-82
2022/03/06 00:05:39;;;;;;;21.63;9.33;;;-3.70;99.90;;;;;;4984240;28;20326;-82
2022/03/06 00:08:04;;;;;;;18.43;10.03;;;-3.80;99.90;;;;;;4983325;28;20419;-82
2022/03/06 00:10:31;;;;;;;17.20;10.47;;;-3.90;99.90;;;;;;4984845;28;20212;-82
2022/03/06 00:12:57;;;;;;;20.57;11.03;;;-3.90;99.90;;;;;;4982962;28;20795;-82
2022/03/06 00:15:23;;;;;;;18.80;10.63;;;-3.90;99.90;;;;;;4983061;28;20216;-82
2022/03/06 00:17:49;;;;;;;20.53;10.43;;;-3.90;99.90;;;;;;4983720;28;20202;-82
2022/03/06 00:20:15;;;;;;;20.03;10.87;;;-3.90;99.90;;;;;;4982980;28;20251;-83
2022/03/06 00:22:42;;;;;;;19.67;11.63;;;-3.90;99.90;;;;;;4983838;28;20426;-82
2022/03/06 00:25:08;;;;;;;17.97;10.67;;;-4.00;99.90;;;;;;4982896;28;21006;-83
2022/03/06 00:27:34;;;;;;;19.03;10.27;;;-4.00;99.90;;;;;;4983593;28;20430;-82
2022/03/06 00:29:59;;;;;;;20.63;10.57;;;-4.00;99.90;;;;;;4983003;28;20510;-82
2022/03/06 00:32:25;;;;;;;20.07;10.47;;;-4.20;99.90;;;;;;4982404;28;20689;-81
2022/03/06 00:34:51;;;;;;;20.30;10.67;;;-4.30;99.90;;;;;;4983485;28;20291;-82
2022/03/06 00:37:17;;;;;;;22.27;11.03;;;-4.30;99.90;;;;;;4984564;28;20256;-82
2022/03/06 00:39:43;;;;;;;24.40;12.23;;;-4.20;99.90;;;;;;4984267;28;20485;-82
2022/03/06 00:42:10;;;;;;;12.93;8.00;;;-4.20;99.90;;;;;;4984420;28;20183;-82
2022/03/06 00:44:37;;;;;;;21.43;9.53;;;-4.20;99.90;;;;;;4984668;28;20473;-82
2022/03/06 00:47:03;;;;;;;19.93;9.43;;;-4.10;99.90;;;;;;4984409;28;20423;-82
2022/03/06 00:49:29;;;;;;;19.40;9.10;;;-4.20;99.90;;;;;;4984901;28;20423;-82
2022/03/06 00:51:55;;;;;;;14.33;8.00;;;-4.20;99.90;;;;;;4985841;28;20494;-81
2022/03/06 00:57:42;;;;;;;14.50;7.77;;;-4.10;99.90;;;;;;4983645;28;20186;-82
2022/03/06 01:00:12;;;;;;;21.53;9.13;;;-4.20;99.90;;;;;;4983588;28;20483;-82
2022/03/06 01:02:40;;;;;;;16.60;7.97;;;-4.20;99.90;;;;;;4982495;28;20188;-82
2022/03/06 01:05:06;;;;;;;19.33;9.37;;;-4.30;99.90;;;;;;4982242;28;20448;-83
2022/03/06 01:07:32;;;;;;;14.70;8.57;;;-4.30;99.90;;;;;;4983608;28;20407;-82
2022/03/06 01:09:58;;;;;;;19.27;9.43;;;-4.30;99.90;;;;;;4982474;28;20202;-82
2022/03/06 01:12:23;;;;;;;19.10;9.23;;;-4.40;99.90;;;;;;4982376;28;20549;-82
2022/03/06 01:14:49;;;;;;;20.30;9.23;;;-4.50;99.90;;;;;;4981325;28;20207;-82
2022/03/06 01:17:16;;;;;;;21.20;9.40;;;-4.70;99.90;;;;;;4983511;28;20210;-82
2022/03/06 01:19:41;;;;;;;18.87;10.00;;;-4.80;99.90;;;;;;4982145;28;20471;-82
2022/03/06 01:22:07;;;;;;;15.70;8.37;;;-4.70;99.90;;;;;;4982511;28;20470;-82
2022/03/06 01:25:13;;;;;;;15.40;8.63;;;-4.70;99.90;;;;;;4983141;28;20215;-82
2022/03/06 01:27:39;;;;;;;18.63;8.53;;;-4.70;99.90;;;;;;4982714;28;20226;-82
2022/03/06 01:36:49;;;;;;;18.57;8.27;;;-4.70;99.90;;;;;;4982609;28;20385;-82
2022/03/06 01:39:20;;;;;;;17.40;8.80;;;-4.70;99.90;;;;;;4982727;28;20451;-82
2022/03/06 01:44:54;;;;;;;19.30;8.40;;;-4.70;99.90;;;;;;4982637;28;21026;-82
2022/03/06 01:47:43;;;;;;;17.50;9.30;;;-4.70;99.90;;;;;;4980691;28;20415;-81
2022/03/06 01:50:21;;;;;;;16.87;9.03;;;-4.60;99.90;;;;;;4984418;28;20417;-82
2022/03/06 01:52:52;;;;;;;17.20;8.13;;;-4.60;99.90;;;;;;4981214;28;20403;-82
2022/03/06 01:58:21;;;;;;;16.27;7.93;;;-4.80;99.90;;;;;;4983351;28;20547;-82
2022/03/06 02:00:49;;;;;;;21.43;9.03;;;-4.90;99.90;;;;;;4981397;28;20408;-82
2022/03/06 02:03:16;;;;;;;17.90;8.93;;;-5.00;99.90;;;;;;4981620;28;20400;-81
2022/03/06 02:05:43;;;;;;;16.77;7.93;;;-5.00;99.90;;;;;;4980887;28;20558;-82
2022/03/06 02:08:09;;;;;;;20.00;8.77;;;-5.00;99.90;;;;;;4981708;28;20408;-82
2022/03/06 02:10:36;;;;;;;20.17;10.17;;;-5.00;99.90;;;;;;4980626;28;20504;-82
2022/03/06 02:13:02;;;;;;;18.53;8.70;;;-5.00;99.90;;;;;;4981941;28;20415;-82
2022/03/06 02:15:28;;;;;;;23.77;8.60;;;-5.00;99.90;;;;;;4982260;28;20431;-82
2022/03/06 02:17:54;;;;;;;16.20;8.77;;;-5.00;99.90;;;;;;4982352;28;20408;-82
2022/03/06 02:20:24;;;;;;;14.43;7.97;;;-5.10;99.90;;;;;;4981195;28;20172;-82
2022/03/06 02:22:57;;;;;;;20.03;8.90;;;-5.00;99.90;;;;;;4980776;28;20408;-82
2022/03/06 02:25:26;;;;;;;18.00;8.43;;;-5.10;99.90;;;;;;4980954;28;20924;-82
2022/03/06 02:27:54;;;;;;;15.00;8.63;;;-5.10;99.90;;;;;;4980972;28;20411;-82
2022/03/06 02:30:22;;;;;;;18.40;8.53;;;-5.10;99.90;;;;;;4980649;28;20412;-82
2022/03/06 02:32:49;;;;;;;15.47;8.13;;;-5.20;99.90;;;;;;4981566;28;20415;-82
2022/03/06 02:35:16;;;;;;;13.87;7.77;;;-5.20;99.90;;;;;;4981309;28;20935;-82
2022/03/06 02:37:42;;;;;;;16.60;8.67;;;-5.10;99.90;;;;;;4980757;28;20434;-82
2022/03/06 02:40:10;;;;;;;15.87;7.63;;;-5.20;99.90;;;;;;4981277;28;20466;-82
2022/03/06 02:42:39;;;;;;;15.70;8.40;;;-5.30;99.90;;;;;;4980835;28;20415;-82
2022/03/06 02:45:09;;;;;;;16.47;7.67;;;-5.30;99.90;;;;;;4981134;28;20445;-82
2022/03/06 02:47:35;;;;;;;17.13;8.33;;;-5.30;99.90;;;;;;4981362;28;20419;-82
2022/03/06 02:50:02;;;;;;;16.53;9.17;;;-5.30;99.90;;;;;;4982285;28;20426;-82
2022/03/06 02:52:29;;;;;;;19.23;8.87;;;-5.30;99.90;;;;;;4982417;28;20424;-82
2022/03/06 02:54:54;;;;;;;17.97;8.27;;;-5.30;99.90;;;;;;4981952;28;20458;-82
2022/03/06 02:57:20;;;;;;;18.50;8.50;;;-5.30;99.90;;;;;;4981846;28;20420;-82
2022/03/06 02:59:46;;;;;;;18.93;8.63;;;-5.30;99.90;;;;;;4980365;28;20288;-82
2022/03/06 03:02:11;;;;;;;18.43;8.23;;;-5.40;99.90;;;;;;4980207;28;20219;-82
2022/03/06 03:04:38;;;;;;;20.53;9.50;;;-5.30;99.90;;;;;;4980685;28;20196;-82
2022/03/06 03:07:05;;;;;;;16.20;9.13;;;-5.30;99.90;;;;;;4982207;28;20171;-82
2022/03/06 03:09:31;;;;;;;16.53;8.60;;;-5.30;99.90;;;;;;4980836;28;20453;-83
2022/03/06 03:11:56;;;;;;;17.43;8.50;;;-5.30;99.90;;;;;;4982112;28;20423;-82
2022/03/06 03:14:23;;;;;;;18.07;8.37;;;-5.30;99.90;;;;;;4980529;28;20279;-82
2022/03/06 03:16:49;;;;;;;18.27;8.30;;;-5.30;99.90;;;;;;4981687;28;20173;-82
2022/03/06 03:19:14;;;;;;;19.03;9.17;;;-5.30;99.90;;;;;;4980779;28;20999;-82
2022/03/06 03:21:41;;;;;;;18.57;9.03;;;-5.30;99.90;;;;;;4980831;28;20195;-82
2022/03/06 03:24:07;;;;;;;15.33;8.47;;;-5.30;99.90;;;;;;4979730;28;20210;-82
2022/03/06 03:26:33;;;;;;;19.00;8.73;;;-5.30;99.90;;;;;;4978157;28;20419;-82
2022/03/06 03:28:59;;;;;;;16.20;7.53;;;-5.30;99.90;;;;;;4978563;28;20425;-82
2022/03/06 03:31:25;;;;;;;17.60;8.67;;;-5.20;99.90;;;;;;4976893;28;20211;-82
2022/03/06 03:33:50;;;;;;;16.63;8.53;;;-5.20;99.90;;;;;;4977373;28;20207;-82
2022/03/06 03:36:16;;;;;;;15.87;8.23;;;-5.20;99.90;;;;;;4977814;28;20551;-82
2022/03/06 03:38:42;;;;;;;16.90;9.47;;;-5.40;99.90;;;;;;4981125;28;20252;-82
2022/03/06 03:41:08;;;;;;;17.57;8.17;;;-5.70;99.90;;;;;;4981066;28;20521;-82
2022/03/06 03:43:34;;;;;;;17.23;8.30;;;-6.00;99.90;;;;;;4982895;28;20214;-82
2022/03/06 03:46:00;;;;;;;18.07;8.40;;;-5.50;99.90;;;;;;4981529;28;20420;-82
2022/03/06 03:48:27;;;;;;;17.60;8.80;;;-5.90;99.90;;;;;;4983018;28;20261;-82
2022/03/06 03:50:53;;;;;;;16.70;7.93;;;-5.80;99.90;;;;;;4980933;28;20233;-82
2022/03/06 03:53:20;;;;;;;15.17;8.10;;;-5.70;99.90;;;;;;4980678;28;20513;-82
2022/03/06 03:55:46;;;;;;;15.73;8.10;;;-4.10;99.90;;;;;;4981024;28;20207;-82
2022/03/06 03:58:12;;;;;;;19.17;9.00;;;-5.60;99.90;;;;;;4980938;28;20434;-82
2022/03/06 04:00:37;;;;;;;13.00;7.17;;;-5.60;99.90;;;;;;4981929;28;20427;-83
2022/03/06 04:03:03;;;;;;;16.47;8.37;;;-5.60;99.90;;;;;;4981583;28;20652;-82
2022/03/06 04:05:29;;;;;;;16.47;7.87;;;-5.60;99.90;;;;;;4982686;28;20275;-82
2022/03/06 04:07:55;;;;;;;14.83;8.30;;;-5.60;99.90;;;;;;4983934;28;20542;-82
2022/03/06 04:10:20;;;;;;;15.57;8.13;;;-5.80;99.90;;;;;;4986901;28;20214;-82
2022/03/06 04:12:46;;;;;;;20.17;8.50;;;-5.90;99.90;;;;;;4983556;28;20667;-82
2022/03/06 04:15:12;;;;;;;16.00;7.60;;;-5.90;99.90;;;;;;4985065;28;20242;-82
2022/03/06 04:17:37;;;;;;;18.67;9.33;;;-5.90;99.90;;;;;;4983907;28;20199;-83
2022/03/06 04:20:04;;;;;;;16.10;8.30;;;-5.90;99.90;;;;;;4982544;28;20215;-82
2022/03/06 04:29:14;;;;;;;13.43;7.47;;;-6.10;99.90;;;;;;4984683;28;20426;-83
2022/03/06 04:31:40;;;;;;;15.33;7.97;;;-6.10;99.90;;;;;;4984522;28;20419;-82
2022/03/06 04:34:06;;;;;;;19.33;7.93;;;-6.10;99.90;;;;;;4983446;28;20251;-82
2022/03/06 04:36:31;;;;;;;16.17;8.13;;;-6.00;99.90;;;;;;4984147;28;20210;-82
2022/03/06 04:38:58;;;;;;;14.63;7.60;;;-5.90;99.90;;;;;;4984728;28;20578;-82
2022/03/06 04:41:24;;;;;;;16.53;8.10;;;-5.80;99.90;;;;;;4985050;28;20259;-82
2022/03/06 04:43:52;;;;;;;19.70;8.53;;;-5.80;99.90;;;;;;4984193;28;20916;-82
2022/03/06 04:46:18;;;;;;;16.53;8.03;;;-5.70;99.90;;;;;;4984417;28;20176;-82
2022/03/06 04:48:44;;;;;;;18.37;9.43;;;-5.70;99.90;;;;;;4983007;28;20518;-82
2022/03/06 04:51:09;;;;;;;18.87;9.03;;;-5.60;99.90;;;;;;4985054;28;20453;-83
2022/03/06 04:53:36;;;;;;;16.17;8.53;;;-5.60;99.90;;;;;;4983358;28;20204;-82
2022/03/06 04:56:03;;;;;;;19.30;9.03;;;-5.60;99.90;;;;;;4982255;28;20253;-82
2022/03/06 04:58:29;;;;;;;13.73;7.60;;;-5.70;99.90;;;;;;4980811;28;20529;-82
2022/03/06 05:00:54;;;;;;;16.43;8.20;;;-5.90;99.90;;;;;;4982288;28;20879;-83
2022/03/06 05:03:20;;;;;;;15.03;8.03;;;-5.90;99.90;;;;;;4981367;28;20179;-82
2022/03/06 05:05:46;;;;;;;15.87;8.47;;;-5.90;99.90;;;;;;4980283;28;20269;-82
2022/03/06 05:08:12;;;;;;;15.77;7.77;;;-5.90;99.90;;;;;;4980734;28;20179;-83
2022/03/06 05:10:38;;;;;;;17.07;8.43;;;-5.80;99.90;;;;;;4981712;28;20184;-82
2022/03/06 05:13:03;;;;;;;19.03;8.83;;;-5.80;99.90;;;;;;4981795;28;20284;-82
2022/03/06 05:15:29;;;;;;;16.70;8.07;;;-5.80;99.90;;;;;;4980593;28;20227;-82
2022/03/06 05:17:55;;;;;;;17.27;9.07;;;-5.70;99.90;;;;;;4979896;28;20180;-82
2022/03/06 05:20:20;;;;;;;18.50;8.17;;;-5.60;99.90;;;;;;4980136;28;20217;-82
2022/03/06 05:22:46;;;;;;;15.37;8.47;;;-5.60;99.90;;;;;;4980010;28;20193;-82
2022/03/06 05:25:12;;;;;;;15.33;8.03;;;-5.50;99.90;;;;;;4979817;28;20565;-82
2022/03/06 05:27:39;;;;;;;17.80;8.80;;;-5.40;99.90;;;;;;4980086;28;20338;-83
2022/03/06 05:30:06;;;;;;;15.03;7.27;;;-5.40;99.90;;;;;;4982279;28;20187;-82
2022/03/06 05:32:32;;;;;;;17.17;7.93;;;-5.30;99.90;;;;;;4979547;28;20431;-82
2022/03/06 05:34:58;;;;;;;16.03;8.20;;;-5.30;99.90;;;;;;4981485;28;20837;-82
2022/03/06 05:37:23;;;;;;;18.20;8.83;;;-5.30;99.90;;;;;;4980017;28;20194;-82
2022/03/06 05:39:50;;;;;;;18.63;9.10;;;-5.40;99.90;;;;;;4980471;28;20640;-82
2022/03/06 05:42:17;;;;;;;20.43;8.60;;;-5.50;99.90;;;;;;4980223;28;20219;-82
2022/03/06 05:48:05;;;;;;;15.90;8.30;;;-5.60;99.90;;;;;;4981517;28;20498;-83
2022/03/06 05:50:30;;;;;;;17.40;8.37;;;-5.60;99.90;;;;;;4979792;28;20907;-82
2022/03/06 05:52:56;;;;;;;16.63;8.70;;;-5.50;99.90;;;;;;4979881;28;20176;-82
2022/03/06 05:55:22;;;;;;;18.33;9.03;;;-5.50;99.90;;;;;;4981171;28;20224;-83
2022/03/06 05:57:47;;;;;;;18.13;9.23;;;-5.50;99.90;;;;;;4980678;28;20173;-82
2022/03/06 06:00:17;;;;;;;16.83;9.27;;;-5.40;99.90;;;;;;4980595;28;20739;-82
2022/03/06 06:02:43;;;;;;;16.77;9.13;;;-5.30;99.90;;;;;;4979338;28;20173;-82
2022/03/06 06:05:09;;;;;;;15.23;8.73;;;-5.20;99.90;;;;;;4979977;28;20481;-82
2022/03/06 06:07:36;;;;;;;21.93;9.63;;;-5.10;99.90;;;;;;4980789;28;20419;-83
2022/03/06 06:10:02;;;;;;;16.43;8.90;;;-5.10;99.90;;;;;;4979896;28;20489;-83
2022/03/06 06:12:28;;;;;;;19.90;9.97;;;-5.00;99.90;;;;;;4980894;28;20960;-82
2022/03/06 06:14:54;;;;;;;18.27;9.30;;;-4.90;99.90;;;;;;4979696;28;20451;-83
2022/03/06 06:17:19;;;;;;;18.63;9.53;;;-4.90;99.90;;;;;;4980759;28;20405;-82
2022/03/06 06:19:45;;;;;;;19.13;9.87;;;-4.90;99.90;;;;;;4980940;28;20220;-82
2022/03/06 06:22:11;;;;;;;19.80;10.33;;;-4.90;99.90;;;;;;4979554;28;20279;-82
2022/03/06 06:24:37;;;;;;;19.63;10.10;;;-4.80;99.90;;;;;;4980067;28;20200;-83
2022/03/06 06:27:02;;;;;;;18.30;9.40;;;-4.70;99.90;;;;;;4981164;28;20255;-83
2022/03/06 06:29:29;;;;;;;21.00;11.23;;;-4.60;99.90;;;;;;4981818;28;20181;-83
2022/03/06 06:31:55;;;;;;;22.40;11.07;;;-4.50;99.90;;;;;;4980426;28;20184;-82
2022/03/06 06:34:20;;;;;;;20.50;11.03;;;-4.50;99.90;;;;;;4981028;28;20490;-82
2022/03/06 06:36:47;;;;;;;23.40;11.77;;;-4.40;99.90;;;;;;4980134;28;20192;-82
2022/03/06 06:39:13;;;;;;;21.07;10.70;;;-4.40;99.90;;;;;;4980527;28;20223;-83
2022/03/06 06:41:40;;;;;;;19.40;10.63;;;-4.30;99.90;;;;;;4980437;28;20860;-82
2022/03/06 06:44:06;;;;;;;23.33;11.87;;;-4.30;99.90;;;;;;4981002;28;20459;-83
2022/03/06 06:46:33;;;;;;;20.87;11.33;;;-4.20;99.90;;;;;;4981256;28;20423;-82
2022/03/06 06:48:58;;;;;;;23.53;11.93;;;-4.10;99.90;;;;;;4990704;28;20499;-82
2022/03/06 06:51:24;;;;;;;23.03;12.27;;;-4.00;99.90;;;;;;4988172;28;20430;-83
2022/03/06 06:53:50;;;;;;;26.83;12.23;;;-3.90;99.90;;;;;;4986349;28;20203;-82
2022/03/06 06:56:16;;;;;;;33.30;14.50;;;-3.80;99.90;;;;;;4983434;28;20247;-83
2022/03/06 06:58:41;;;;;;;26.00;12.43;;;-3.80;99.90;;;;;;4980482;28;20222;-82
2022/03/06 07:01:07;;;;;;;23.13;11.67;;;-3.70;99.90;;;;;;4981810;28;20514;-82
2022/03/06 07:03:33;;;;;;;21.57;11.03;;;-3.70;99.90;;;;;;4981605;28;20192;-82
2022/03/06 07:05:59;;;;;;;19.63;11.07;;;-3.70;99.90;;;;;;4979768;28;20185;-82
2022/03/06 07:08:25;;;;;;;21.77;11.83;;;-3.70;99.90;;;;;;4981131;28;20180;-82
2022/03/06 07:10:51;;;;;;;27.87;11.97;;;-3.70;99.90;;;;;;4981383;28;20176;-82
2022/03/06 07:13:17;;;;;;;24.27;11.60;;;-3.60;99.90;;;;;;4982710;28;20447;-83
2022/03/06 07:15:43;;;;;;;21.80;11.97;;;-3.60;99.90;;;;;;4984597;28;20426;-83
2022/03/06 07:18:09;;;;;;;21.37;11.17;;;-2.70;99.90;;;;;;4983780;28;20638;-83
2022/03/06 07:20:34;;;;;;;25.17;12.50;;;-3.40;99.90;;;;;;4984040;28;20264;-83
2022/03/06 07:23:00;;;;;;;22.07;12.17;;;-3.40;99.90;;;;;;4982777;28;20181;-83
2022/03/06 07:25:26;;;;;;;55.80;31.03;;;-3.40;99.90;;;;;;4984662;28;20677;-83
2022/03/06 07:27:52;;;;;;;35.40;22.13;;;-3.60;99.90;;;;;;4982780;28;20672;-83
2022/03/06 07:30:17;;;;;;;44.07;25.20;;;-3.50;99.90;;;;;;4982689;28;20185;-83
2022/03/06 07:32:44;;;;;;;25.87;15.70;;;-3.50;99.90;;;;;;4982329;28;20210;-82
2022/03/06 07:35:10;;;;;;;25.90;13.97;;;-3.40;99.90;;;;;;4982783;28;20259;-82
2022/03/06 07:37:36;;;;;;;29.23;15.40;;;-3.30;99.90;;;;;;4982655;28;20423;-83
2022/03/06 07:40:02;;;;;;;36.47;21.40;;;-3.40;99.90;;;;;;4983290;28;20467;-84
2022/03/06 07:42:28;;;;;;;28.27;15.27;;;-3.30;99.90;;;;;;4984979;28;20203;-83
2022/03/06 07:44:54;;;;;;;28.90;15.73;;;-3.20;99.90;;;;;;4984317;28;20499;-84
2022/03/06 07:47:20;;;;;;;30.53;15.50;;;-3.10;99.90;;;;;;4991710;28;20235;-83
2022/03/06 07:49:45;;;;;;;25.80;14.30;;;-3.00;99.90;;;;;;4992546;28;20459;-84
2022/03/06 07:52:12;;;;;;;25.17;13.67;;;-3.00;99.90;;;;;;4983296;28;20435;-83
2022/03/06 07:54:38;;;;;;;19.27;11.93;;;-3.00;99.90;;;;;;4981707;28;20220;-85
2022/03/06 07:57:04;;;;;;;26.43;14.23;;;-3.00;99.90;;;;;;4982177;28;20419;-83
2022/03/06 07:59:30;;;;;;;28.80;14.40;;;-3.00;99.90;;;;;;4983752;28;20458;-84
2022/03/06 08:01:56;;;;;;;27.27;15.87;;;-2.90;99.90;;;;;;4984684;28;20183;-84
2022/03/06 08:04:22;;;;;;;22.97;13.53;;;-2.90;99.90;;;;;;4983469;28;20203;-84
2022/03/06 08:06:49;;;;;;;24.97;13.97;;;-2.90;99.90;;;;;;4985176;28;20172;-83
2022/03/06 08:09:15;;;;;;;24.67;12.83;;;-2.90;99.90;;;;;;4984825;28;20927;-83
2022/03/06 08:11:41;;;;;;;24.50;13.70;;;-2.90;99.90;;;;;;4984307;28;20496;-83
2022/03/06 08:14:07;;;;;;;25.90;13.90;;;-2.80;99.90;;;;;;4983207;28;20483;-83
2022/03/06 08:16:33;;;;;;;26.57;14.03;;;-2.70;99.90;;;;;;4985065;28;20177;-83
2022/03/06 08:18:58;;;;;;;26.57;14.90;;;-2.60;99.90;;;;;;4982726;28;20280;-83
2022/03/06 08:21:24;;;;;;;26.40;14.33;;;-2.60;99.90;;;;;;4984771;28;20176;-83
2022/03/06 08:23:51;;;;;;;23.90;13.13;;;-2.50;99.90;;;;;;4981521;28;20637;-83
2022/03/06 08:26:17;;;;;;;29.60;14.27;;;-2.50;99.90;;;;;;4981971;28;20211;-83
2022/03/06 08:28:44;;;;;;;25.13;12.47;;;-2.60;99.90;;;;;;4979652;28;20427;-83
2022/03/06 08:31:10;;;;;;;27.17;14.00;;;-2.50;99.90;;;;;;4979634;28;20446;-82
2022/03/06 08:33:37;;;;;;;22.40;12.87;;;-2.50;99.90;;;;;;4980978;28;20479;-83
2022/03/06 08:36:03;;;;;;;23.47;13.07;;;-2.40;99.90;;;;;;4980715;28;20419;-82
2022/03/06 08:38:29;;;;;;;25.03;12.77;;;-2.40;99.90;;;;;;4985955;28;20471;-83
2022/03/06 08:40:55;;;;;;;26.90;14.80;;;-2.30;99.90;;;;;;4984873;28;20415;-83
2022/03/06 08:43:20;;;;;;;25.33;14.90;;;-2.30;99.90;;;;;;4984790;28;20706;-83
2022/03/06 08:45:46;;;;;;;25.03;14.07;;;-1.80;99.90;;;;;;4995887;28;20215;-82
2022/03/06 08:48:12;;;;;;;23.97;13.27;;;-2.20;99.90;;;;;;4993555;28;20230;-83
2022/03/06 08:50:38;;;;;;;28.83;14.37;;;-2.20;99.90;;;;;;4983040;28;20649;-83
2022/03/06 08:53:03;;;;;;;27.07;14.67;;;-2.20;99.90;;;;;;4982987;28;20187;-84
2022/03/06 08:55:29;;;;;;;23.90;14.23;;;-2.20;99.90;;;;;;4982964;28;20212;-83
2022/03/06 08:57:55;;;;;;;26.67;14.93;;;-2.20;99.90;;;;;;4983385;28;20569;-84
2022/03/06 09:00:21;;;;;;;24.40;14.20;;;-2.20;99.90;;;;;;4983257;28;20555;-82
2022/03/06 09:02:46;;;;;;;22.57;13.33;;;-2.20;99.90;;;;;;4982500;28;20176;-83
2022/03/06 09:05:12;;;;;;;27.00;14.83;;;-1.90;99.90;;;;;;4982748;28;20200;-84
2022/03/06 09:07:38;;;;;;;23.90;13.57;;;-2.20;99.90;;;;;;4981945;28;20181;-83
2022/03/06 09:10:05;;;;;;;27.40;15.53;;;-2.30;99.90;;;;;;4982036;28;20207;-83
2022/03/06 09:12:31;;;;;;;23.10;13.67;;;-2.30;99.90;;;;;;4982506;28;20412;-83
2022/03/06 09:14:58;;;;;;;26.10;13.60;;;-2.30;99.90;;;;;;4984514;28;20511;-82
2022/03/06 09:17:24;;;;;;;24.37;13.20;;;-1.90;99.90;;;;;;4982436;28;20777;-83
2022/03/06 09:19:50;;;;;;;25.17;14.80;;;-2.20;99.90;;;;;;4982353;28;20462;-84
2022/03/06 09:22:15;;;;;;;25.77;13.33;;;-2.00;99.90;;;;;;4983253;28;20592;-83
2022/03/06 09:24:41;;;;;;;26.57;14.20;;;-2.00;99.90;;;;;;4982729;28;20197;-83
2022/03/06 09:27:07;;;;;;;23.13;13.63;;;-2.00;99.90;;;;;;4981283;28;20176;-83
2022/03/06 09:29:33;;;;;;;24.97;13.83;;;-2.00;99.90;;;;;;4982307;28;20255;-83
2022/03/06 09:31:58;;;;;;;26.90;13.97;;;-1.90;99.90;;;;;;4979140;28;21079;-84
2022/03/06 09:34:24;;;;;;;25.00;13.70;;;-1.80;99.90;;;;;;4977769;28;20196;-83
2022/03/06 09:36:50;;;;;;;27.67;15.03;;;-1.60;99.90;;;;;;4978826;28;20280;-83
2022/03/06 09:39:17;;;;;;;26.13;13.90;;;-1.60;99.90;;;;;;4978376;28;20200;-83
2022/03/06 09:41:43;;;;;;;24.60;13.57;;;-1.50;99.90;;;;;;4978855;28;20408;-82
2022/03/06 09:44:12;;;;;;;25.50;15.00;;;-1.40;99.90;;;;;;4978894;28;20435;-83
2022/03/06 09:46:39;;;;;;;22.60;13.30;;;-1.50;99.90;;;;;;4977398;28;20470;-82
2022/03/06 09:49:06;;;;;;;23.23;14.73;;;-1.40;99.90;;;;;;4978141;28;20427;-83
2022/03/06 09:51:41;;;;;;;26.37;14.73;;;-1.30;99.90;;;;;;4977174;28;20514;-82
2022/03/06 09:54:15;;;;;;;25.07;14.73;;;-1.30;99.90;;;;;;4977125;28;20951;-83
2022/03/06 09:56:43;;;;;;;23.70;13.93;;;-1.40;99.90;;;;;;4978769;28;20477;-83
2022/03/06 09:59:10;;;;;;;29.60;16.53;;;-1.30;99.90;;;;;;4978113;28;20550;-83
2022/03/06 10:01:36;;;;;;;27.90;15.00;;;-1.30;99.90;;;;;;4977710;28;20422;-83
2022/03/06 10:04:29;;;;;;;24.67;14.53;;;-1.30;99.90;;;;;;4977487;28;20439;-83
2022/03/06 10:07:06;;;;;;;26.37;14.77;;;-1.30;99.90;;;;;;4978379;28;20411;-81
2022/03/06 10:09:34;;;;;;;25.17;14.10;;;-1.10;99.90;;;;;;4978733;28;20420;-83
2022/03/06 10:12:00;;;;;;;25.43;13.13;;;-1.00;99.90;;;;;;4980494;28;20519;-84
2022/03/06 10:14:37;;;;;;;22.30;13.27;;;-0.70;99.90;;;;;;4981116;28;20435;-84
2022/03/06 10:17:21;;;;;;;20.37;13.50;;;-0.50;99.90;;;;;;4979073;28;20414;-81
2022/03/06 10:20:01;;;;;;;21.10;13.20;;;-0.40;99.90;;;;;;4978394;28;20912;-82
2022/03/06 10:22:34;;;;;;;23.90;12.80;;;-0.20;99.90;;;;;;4977943;28;20454;-82
2022/03/06 10:25:08;;;;;;;23.83;13.73;;;0.00;99.90;;;;;;4977100;28;20475;-82
2022/03/06 10:27:54;;;;;;;21.93;12.00;;;0.10;99.90;;;;;;4977936;28;20403;-82
2022/03/06 10:30:38;;;;;;;23.77;12.47;;;0.90;99.90;;;;;;4978740;28;20410;-81
2022/03/06 10:33:20;;;;;;;20.07;12.83;;;2.20;99.90;;;;;;4978019;28;20534;-81
2022/03/06 10:35:49;;;;;;;23.53;13.90;;;2.40;99.90;;;;;;4979563;28;20429;-82
2022/03/06 10:38:21;;;;;;;22.00;13.70;;;2.30;99.90;;;;;;4979842;28;20468;-82
2022/03/06 10:40:48;;;;;;;18.13;11.93;;;1.80;99.90;;;;;;4980082;28;20183;-82
2022/03/06 10:43:30;;;;;;;18.60;12.07;;;0.90;99.90;;;;;;4984129;28;20176;-83
2022/03/06 10:46:22;;;;;;;18.87;12.10;;;0.90;99.90;;;;;;4976700;28;20185;-83
2022/03/06 10:48:59;;;;;;;16.93;11.40;;;0.60;99.90;;;;;;4977105;28;20185;-84
2022/03/06 10:51:26;;;;;;;18.03;11.90;;;0.30;99.90;;;;;;4979200;28;20511;-83
2022/03/06 10:53:58;;;;;;;18.90;12.43;;;0.30;99.90;;;;;;4977944;28;20271;-82
2022/03/06 10:56:26;;;;;;;19.33;11.80;;;0.30;99.90;;;;;;4978873;28;20181;-82
2022/03/06 10:58:54;;;;;;;20.50;12.93;;;0.90;99.90;;;;;;4980044;28;20214;-82
2022/03/06 11:01:20;;;;;;;20.33;12.67;;;1.50;99.90;;;;;;4979185;28;20204;-83
2022/03/06 11:03:46;;;;;;;18.70;12.03;;;2.50;99.90;;;;;;4979454;28;20208;-83
2022/03/06 11:06:13;;;;;;;17.67;11.20;;;3.00;99.90;;;;;;4978710;28;20178;-83
2022/03/06 11:08:40;;;;;;;17.67;11.87;;;3.70;99.90;;;;;;4979233;28;20213;-84
2022/03/06 11:11:07;;;;;;;19.70;11.57;;;3.60;99.90;;;;;;4978397;28;20240;-79
2022/03/06 11:13:33;;;;;;;16.67;11.17;;;3.20;99.90;;;;;;4977269;28;20296;-84
2022/03/06 11:16:01;;;;;;;17.30;11.70;;;2.90;99.90;;;;;;4980127;28;20182;-85
2022/03/06 11:18:29;;;;;;;17.47;12.17;;;2.70;99.90;;;;;;4981877;28;20195;-85
2022/03/06 11:20:58;;;;;;;16.60;11.00;;;2.60;99.90;;;;;;4981062;28;20198;-85
2022/03/06 11:23:33;;;;;;;16.43;11.13;;;2.30;99.90;;;;;;4983896;28;20189;-85
2022/03/06 11:26:16;;;;;;;17.13;10.73;;;2.30;99.90;;;;;;4982986;28;20174;-83
2022/03/06 11:29:32;;;;;;;16.80;10.20;;;2.20;99.90;;;;;;4979688;28;20228;-83
2022/03/06 11:32:05;;;;;;;16.13;9.33;;;2.10;99.90;;;;;;4946459;28;20190;-83
2022/03/06 11:34:34;;;;;;;14.13;10.90;;;2.70;99.90;;;;;;4979126;28;20204;-83
2022/03/06 11:37:05;;;;;;;14.00;10.07;;;3.70;99.90;;;;;;4979627;28;20193;-83
2022/03/06 11:39:31;;;;;;;16.93;11.73;;;3.70;99.90;;;;;;4977575;28;20261;-84
2022/03/06 11:42:06;;;;;;;18.83;12.23;;;3.60;99.90;;;;;;4978187;28;20173;-83
2022/03/06 11:44:35;;;;;;;14.60;10.30;;;3.30;99.90;;;;;;4980899;28;20213;-80
2022/03/06 11:47:37;;;;;;;17.60;10.63;;;3.20;99.90;;;;;;4978760;28;20201;-83
2022/03/06 11:50:05;;;;;;;16.70;10.80;;;3.30;99.90;;;;;;4978246;28;20180;-83
2022/03/06 11:52:32;;;;;;;14.87;10.37;;;3.70;99.90;;;;;;4982314;28;20180;-82
2022/03/06 11:54:59;;;;;;;15.73;10.60;;;3.50;99.90;;;;;;4981466;28;20245;-86
2022/03/06 11:57:45;;;;;;;15.70;10.57;;;3.60;99.90;;;;;;4977820;28;20269;-87
2022/03/06 12:00:25;;;;;;;15.37;10.13;;;3.60;99.90;;;;;;4983515;28;20223;-89
2022/03/06 12:02:53;;;;;;;11.90;8.67;;;4.80;99.90;;;;;;4982085;28;20245;-87
2022/03/06 12:05:21;;;;;;;20.87;14.47;;;5.10;99.90;;;;;;4980889;28;20200;-87
2022/03/06 12:07:49;;;;;;;25.67;18.27;;;6.10;98.40;;;;;;4981630;28;20180;-86
2022/03/06 12:10:16;;;;;;;17.20;11.67;;;7.40;95.00;;;;;;4982695;28;20207;-87
2022/03/06 12:12:43;;;;;;;721.77;369.13;;;8.60;92.20;;;;;;4981884;28;20184;-86
2022/03/06 12:15:26;;;;;;;318.27;225.97;;;7.70;85.80;;;;;;4986838;28;20203;-85
2022/03/06 12:17:52;;;;;;;83.97;54.90;;;8.50;83.20;;;;;;4984504;28;20180;-85
2022/03/06 12:20:25;;;;;;;162.23;78.27;;;8.50;77.40;;;;;;4983089;28;20208;-83
2022/03/06 12:22:53;;;;;;;598.00;316.90;;;7.90;77.30;;;;;;4983430;28;20191;-83
2022/03/06 12:25:25;;;;;;;21.67;16.10;;;8.30;76.30;;;;;;4981276;28;20203;-83
2022/03/06 12:28:03;;;;;;;25.63;18.47;;;7.10;73.70;;;;;;4982238;28;20187;-83
2022/03/06 12:30:32;;;;;;;15.43;11.43;;;6.40;78.90;;;;;;4982573;28;20179;-85
2022/03/06 12:33:18;;;;;;;349.30;245.67;;;5.70;79.80;;;;;;4982549;28;20176;-86
2022/03/06 12:35:47;;;;;;;182.87;134.00;;;5.20;81.50;;;;;;4985188;28;20183;-86
2022/03/06 12:38:24;;;;;;;56.80;37.20;;;4.80;83.70;;;;;;4969484;28;20185;-85
2022/03/06 12:40:50;;;;;;;72.30;44.00;;;6.00;82.90;;;;;;4986612;28;20184;-84
2022/03/06 12:43:19;;;;;;;70.93;47.97;;;7.90;73.30;;;;;;4989076;28;20544;-84
2022/03/06 12:45:46;;;;;;;17.63;13.33;;;7.90;73.80;;;;;;4984742;28;20172;-83
2022/03/06 12:48:12;;;;;;;14.90;11.57;;;9.00;68.00;;;;;;4981416;28;20180;-83
2022/03/06 12:50:42;;;;;;;15.90;11.27;;;9.10;68.80;;;;;;4981016;28;20180;-82
2022/03/06 12:53:09;;;;;;;15.43;11.10;;;9.80;67.40;;;;;;4980787;28;20165;-83
2022/03/06 12:55:35;;;;;;;14.30;10.00;;;10.00;61.60;;;;;;4983487;28;20648;-84
2022/03/06 12:58:01;;;;;;;12.33;9.47;;;10.10;62.10;;;;;;4984575;28;20671;-85
2022/03/06 13:00:33;;;;;;;12.60;9.83;;;10.70;61.90;;;;;;4985826;28;20244;-85
2022/03/06 13:03:05;;;;;;;12.77;9.43;;;10.60;57.00;;;;;;4985820;28;20183;-85